Time;durP1;ratioP1;P1;durP2;ratioP2;P2;SDS_P1;SDS_P2;PMS_P1;PMS_P2;Temp;Humidity;BMP_temperature;BMP_pressure;BME280_temperature;BME280_humidity;BME280_pressure;Samples;Min_cycle;Max_cycle;Signal;HPM_P1;HPM_P2
2024/02/18 00:00:31;;;;;;;2.47;1.67;;;11.00;99.90;;;;;;5006196;28;20461;-47
2024/02/18 00:02:59;;;;;;;3.80;2.70;;;11.00;99.90;;;;;;5003320;28;20488;-48
2024/02/18 00:05:33;;;;;;;2.53;1.90;;;11.00;99.90;;;;;;5005687;28;20494;-48
2024/02/18 00:08:03;;;;;;;2.50;1.90;;;11.00;99.90;;;;;;5003568;28;20481;-50
2024/02/18 00:10:31;;;;;;;2.20;2.00;;;11.00;99.90;;;;;;5006832;28;20432;-47
2024/02/18 00:13:02;;;;;;;2.43;2.07;;;11.00;99.90;;;;;;5005841;28;20464;-47
2024/02/18 00:15:31;;;;;;;3.30;2.80;;;11.00;99.90;;;;;;5003382;28;20432;-48
2024/02/18 00:18:03;;;;;;;3.47;2.30;;;11.00;99.90;;;;;;4998095;28;20567;-48
2024/02/18 00:20:31;;;;;;;2.00;1.73;;;11.00;99.90;;;;;;5005583;28;20439;-48
2024/02/18 00:23:04;;;;;;;2.70;2.00;;;11.00;99.90;;;;;;4998590;28;20483;-48
2024/02/18 00:25:32;;;;;;;2.53;1.83;;;11.00;99.90;;;;;;5005503;28;20457;-47
2024/02/18 00:28:01;;;;;;;3.87;2.00;;;11.00;99.90;;;;;;5004549;28;20453;-48
2024/02/18 00:30:30;;;;;;;3.37;2.40;;;11.00;99.90;;;;;;5003757;28;20459;-48
2024/02/18 00:33:00;;;;;;;4.23;2.40;;;11.00;99.90;;;;;;4997551;28;20846;-48
2024/02/18 00:35:28;;;;;;;3.50;2.40;;;11.00;99.90;;;;;;5005643;28;20475;-47
2024/02/18 00:37:59;;;;;;;2.90;2.30;;;11.00;99.90;;;;;;5004827;28;20513;-48
2024/02/18 00:40:32;;;;;;;3.10;1.93;;;11.00;99.90;;;;;;5001210;28;20448;-49
2024/02/18 00:43:00;;;;;;;4.27;2.37;;;11.00;99.90;;;;;;4996110;28;20611;-48
2024/02/18 00:45:30;;;;;;;2.77;2.20;;;11.00;99.90;;;;;;5006575;28;20941;-51
2024/02/18 00:47:59;;;;;;;3.07;2.13;;;11.00;99.90;;;;;;4998022;28;20548;-48
2024/02/18 00:50:27;;;;;;;2.80;2.50;;;11.00;99.90;;;;;;4990752;28;21128;-47
2024/02/18 00:52:55;;;;;;;4.43;2.30;;;11.00;99.90;;;;;;5003160;28;20464;-47
2024/02/18 00:55:24;;;;;;;2.70;2.13;;;11.00;99.90;;;;;;4981805;28;20913;-48
2024/02/18 00:57:53;;;;;;;2.60;2.03;;;11.00;99.90;;;;;;5001432;28;20459;-48
2024/02/18 01:00:22;;;;;;;2.50;1.83;;;11.00;99.90;;;;;;5006363;28;20541;-48
2024/02/18 01:02:54;;;;;;;2.70;2.50;;;11.00;99.90;;;;;;5002245;28;20569;-47
2024/02/18 01:05:25;;;;;;;1.90;1.70;;;11.00;99.90;;;;;;4998484;28;20493;-47
2024/02/18 01:07:54;;;;;;;2.57;2.23;;;11.00;99.90;;;;;;5003181;28;20522;-48
2024/02/18 01:10:23;;;;;;;2.60;1.70;;;11.00;99.90;;;;;;5003729;28;20447;-46
2024/02/18 01:12:53;;;;;;;3.10;2.53;;;10.90;99.90;;;;;;4995611;28;20577;-48
2024/02/18 01:15:22;;;;;;;2.83;2.00;;;11.00;99.90;;;;;;5003902;28;20825;-49
2024/02/18 01:17:51;;;;;;;3.10;2.43;;;11.00;99.90;;;;;;4996050;28;20481;-48
2024/02/18 01:20:20;;;;;;;3.80;2.20;;;11.00;99.90;;;;;;5003892;28;20446;-50
2024/02/18 01:22:48;;;;;;;2.10;1.90;;;11.00;99.90;;;;;;5000104;28;20474;-47
2024/02/18 01:25:16;;;;;;;3.63;2.37;;;11.00;99.90;;;;;;5004267;28;20555;-48
2024/02/18 01:27:47;;;;;;;3.13;2.27;;;11.00;99.90;;;;;;5003045;28;20462;-49
2024/02/18 01:30:19;;;;;;;3.30;1.97;;;11.00;99.90;;;;;;5004554;28;20483;-47
2024/02/18 01:32:48;;;;;;;3.10;2.03;;;11.00;99.90;;;;;;4998982;28;20559;-47
2024/02/18 01:35:19;;;;;;;3.47;2.07;;;11.00;99.90;;;;;;5004428;28;20550;-48
2024/02/18 01:37:48;;;;;;;2.83;2.10;;;11.00;99.90;;;;;;5003003;28;20460;-50
2024/02/18 01:40:16;;;;;;;3.80;2.10;;;11.00;99.90;;;;;;5007563;28;20818;-47
2024/02/18 01:42:45;;;;;;;3.80;2.17;;;11.00;99.90;;;;;;4996852;28;20479;-49
2024/02/18 01:45:14;;;;;;;4.03;2.17;;;11.00;99.90;;;;;;5006263;28;20906;-48
2024/02/18 01:47:43;;;;;;;3.83;2.40;;;11.00;99.90;;;;;;4995182;28;20480;-48
2024/02/18 01:50:12;;;;;;;3.97;2.57;;;10.90;99.90;;;;;;5001831;28;20441;-47
2024/02/18 01:52:47;;;;;;;2.73;2.23;;;10.90;99.90;;;;;;5005730;28;20829;-47
2024/02/18 01:55:16;;;;;;;4.10;2.77;;;10.90;99.90;;;;;;5004524;28;21011;-48
2024/02/18 01:57:46;;;;;;;6.67;2.77;;;10.90;99.90;;;;;;4987566;28;20475;-47
2024/02/18 02:00:18;;;;;;;2.63;2.07;;;10.90;99.90;;;;;;4986262;28;20454;-47
2024/02/18 02:02:51;;;;;;;3.00;2.37;;;10.90;99.90;;;;;;4999127;28;21083;-47
2024/02/18 02:05:21;;;;;;;4.80;3.17;;;10.90;99.90;;;;;;5003401;28;20468;-47
2024/02/18 02:07:52;;;;;;;4.60;2.73;;;10.90;99.90;;;;;;5002822;28;20491;-47
2024/02/18 02:10:22;;;;;;;3.10;2.40;;;10.90;99.90;;;;;;5003977;28;20451;-50
2024/02/18 02:12:51;;;;;;;3.20;2.30;;;10.90;99.90;;;;;;4999504;28;20998;-47
2024/02/18 02:15:19;;;;;;;4.47;3.00;;;10.90;99.90;;;;;;4990327;28;20859;-50
2024/02/18 02:17:48;;;;;;;3.70;2.67;;;10.90;99.90;;;;;;4981296;28;20495;-47
2024/02/18 02:20:17;;;;;;;2.80;1.97;;;10.90;99.90;;;;;;5006438;28;20425;-48
2024/02/18 02:22:46;;;;;;;4.47;2.60;;;10.90;99.90;;;;;;5006305;28;20483;-48
2024/02/18 02:25:15;;;;;;;3.33;2.40;;;10.90;99.90;;;;;;5001781;28;20990;-48
2024/02/18 02:27:47;;;;;;;2.40;2.10;;;10.90;99.90;;;;;;5006027;28;20468;-47
2024/02/18 02:30:19;;;;;;;4.43;2.63;;;10.90;99.90;;;;;;5007708;28;20869;-48
2024/02/18 02:32:47;;;;;;;3.03;2.30;;;10.90;99.90;;;;;;4997678;28;20954;-48
2024/02/18 02:35:18;;;;;;;5.60;2.10;;;10.90;99.90;;;;;;4994560;28;20485;-48
2024/02/18 02:37:46;;;;;;;3.93;2.70;;;10.90;99.90;;;;;;4996640;28;21039;-47
2024/02/18 02:40:14;;;;;;;5.73;2.30;;;10.90;99.90;;;;;;4994013;28;20445;-48
2024/02/18 02:42:42;;;;;;;2.67;2.00;;;10.90;99.90;;;;;;5003289;28;20495;-48
2024/02/18 02:45:14;;;;;;;3.93;2.67;;;10.90;99.90;;;;;;5006275;28;21007;-50
2024/02/18 02:47:49;;;;;;;4.33;2.70;;;10.90;99.90;;;;;;4985656;28;20559;-48
2024/02/18 02:50:18;;;;;;;3.30;2.43;;;10.90;99.90;;;;;;5008139;28;20513;-48
2024/02/18 02:52:46;;;;;;;3.40;2.30;;;10.90;99.90;;;;;;5005963;28;20851;-47
2024/02/18 02:55:16;;;;;;;3.00;2.33;;;10.90;99.90;;;;;;5006120;28;20467;-48
2024/02/18 02:57:48;;;;;;;2.13;1.63;;;10.90;99.90;;;;;;5004689;28;21016;-47
2024/02/18 03:00:16;;;;;;;2.47;1.87;;;10.90;99.90;;;;;;5005868;28;20514;-48
2024/02/18 03:02:47;;;;;;;3.70;2.80;;;10.90;99.90;;;;;;5008194;28;20528;-47
2024/02/18 03:05:16;;;;;;;2.13;1.70;;;10.90;99.90;;;;;;5012827;28;21037;-48
2024/02/18 03:07:44;;;;;;;2.23;2.00;;;10.90;99.90;;;;;;5012101;28;20480;-48
2024/02/18 03:10:12;;;;;;;2.70;2.13;;;10.90;99.90;;;;;;5013171;28;20837;-47
2024/02/18 03:12:49;;;;;;;2.87;2.10;;;10.90;99.90;;;;;;5005040;28;20479;-48
2024/02/18 03:15:18;;;;;;;2.87;2.10;;;10.90;99.90;;;;;;5012787;28;20833;-48
2024/02/18 03:17:51;;;;;;;3.37;1.97;;;10.90;99.90;;;;;;5004535;28;20473;-48
2024/02/18 03:20:19;;;;;;;3.80;2.40;;;10.90;99.90;;;;;;5010897;28;20505;-48
2024/02/18 03:22:53;;;;;;;2.50;2.13;;;10.90;99.90;;;;;;5011947;28;20462;-48
2024/02/18 03:25:23;;;;;;;3.77;2.47;;;10.90;99.90;;;;;;5006856;28;20451;-47
2024/02/18 03:27:51;;;;;;;3.50;2.43;;;10.80;99.90;;;;;;5011873;28;20465;-47
2024/02/18 03:30:20;;;;;;;3.43;2.50;;;10.80;99.90;;;;;;5010379;28;20470;-47
2024/02/18 03:32:50;;;;;;;3.40;1.90;;;10.90;99.90;;;;;;5005978;28;20480;-47
2024/02/18 03:35:27;;;;;;;2.63;2.10;;;10.80;99.90;;;;;;4982635;28;20573;-49
2024/02/18 03:37:57;;;;;;;1.90;1.70;;;10.80;99.90;;;;;;5017149;28;20459;-48
2024/02/18 03:40:25;;;;;;;1.97;1.50;;;10.80;99.90;;;;;;5012466;28;20494;-47
2024/02/18 03:42:53;;;;;;;2.47;1.60;;;10.90;99.90;;;;;;5000026;28;20471;-47
2024/02/18 03:45:22;;;;;;;3.00;2.30;;;10.80;99.90;;;;;;5012822;28;20445;-48
2024/02/18 03:47:56;;;;;;;2.37;1.83;;;10.80;99.90;;;;;;5003579;28;20480;-47
2024/02/18 03:50:27;;;;;;;2.07;1.70;;;10.80;99.90;;;;;;5008233;28;20448;-47
2024/02/18 03:52:55;;;;;;;2.83;2.33;;;10.80;99.90;;;;;;5011038;28;20561;-47
2024/02/18 03:55:26;;;;;;;3.00;2.00;;;10.80;99.90;;;;;;5000793;28;20520;-47
2024/02/18 03:57:56;;;;;;;6.17;2.10;;;10.80;99.90;;;;;;5011027;28;20514;-48
2024/02/18 04:00:25;;;;;;;3.53;2.40;;;10.80;99.90;;;;;;5011894;28;20441;-48
2024/02/18 04:02:55;;;;;;;2.67;2.00;;;10.80;99.90;;;;;;5004128;28;20511;-47
2024/02/18 04:05:24;;;;;;;5.70;2.50;;;10.80;99.90;;;;;;5002029;28;20437;-47
2024/02/18 04:07:53;;;;;;;2.40;1.97;;;10.80;99.90;;;;;;5013056;28;20469;-47
2024/02/18 04:10:21;;;;;;;3.10;2.73;;;10.80;99.90;;;;;;5004897;28;20441;-48
2024/02/18 04:12:49;;;;;;;2.73;2.20;;;10.80;99.90;;;;;;5004582;28;20553;-48
2024/02/18 04:15:20;;;;;;;3.00;2.40;;;10.80;99.90;;;;;;5006724;28;20459;-48
2024/02/18 04:17:48;;;;;;;3.03;2.10;;;10.80;99.90;;;;;;4997783;28;20492;-47
2024/02/18 04:20:18;;;;;;;2.30;1.87;;;10.80;99.90;;;;;;5004465;28;20444;-48
2024/02/18 04:22:46;;;;;;;2.93;2.30;;;10.80;99.90;;;;;;5003769;28;21392;-48
2024/02/18 04:25:15;;;;;;;4.17;2.90;;;10.80;99.90;;;;;;5006800;28;20460;-49
2024/02/18 04:27:43;;;;;;;2.73;2.20;;;10.80;99.90;;;;;;4989857;28;20472;-48
2024/02/18 04:30:12;;;;;;;8.03;2.53;;;10.80;99.90;;;;;;5004010;28;20473;-47
2024/02/18 04:32:41;;;;;;;2.63;1.93;;;10.80;99.90;;;;;;4998999;28;20570;-51
2024/02/18 04:35:09;;;;;;;3.40;2.13;;;10.80;99.90;;;;;;5004139;28;21029;-47
2024/02/18 04:37:41;;;;;;;3.93;2.43;;;10.80;99.90;;;;;;5004190;28;20459;-48
2024/02/18 04:40:12;;;;;;;3.50;1.73;;;10.80;99.90;;;;;;5007344;28;20460;-48
2024/02/18 04:42:40;;;;;;;3.53;2.27;;;10.80;99.90;;;;;;5004760;28;20457;-47
2024/02/18 04:45:09;;;;;;;3.67;2.40;;;10.80;99.90;;;;;;5001635;28;20546;-47
2024/02/18 04:47:37;;;;;;;4.23;2.33;;;10.80;99.90;;;;;;4996622;28;20479;-48
2024/02/18 04:50:07;;;;;;;4.60;2.20;;;10.70;99.90;;;;;;5004134;28;20453;-51
2024/02/18 04:52:41;;;;;;;3.37;2.23;;;10.80;99.90;;;;;;5005964;28;20459;-47
2024/02/18 04:55:10;;;;;;;3.13;2.10;;;10.80;99.90;;;;;;5007084;28;20455;-47
2024/02/18 04:57:39;;;;;;;4.33;2.37;;;10.80;99.90;;;;;;4988586;28;20453;-50
2024/02/18 05:00:10;;;;;;;3.80;2.60;;;10.80;99.90;;;;;;5009090;28;20433;-51
2024/02/18 05:02:39;;;;;;;3.40;2.37;;;10.80;99.90;;;;;;5002449;28;20513;-47
2024/02/18 05:05:07;;;;;;;5.63;2.33;;;10.80;99.90;;;;;;5001960;28;20861;-48
2024/02/18 05:07:42;;;;;;;2.60;1.90;;;10.80;99.90;;;;;;5004780;28;20888;-50
2024/02/18 05:10:11;;;;;;;4.40;2.37;;;10.80;99.90;;;;;;5007542;28;20984;-47
2024/02/18 05:12:42;;;;;;;3.30;2.43;;;10.80;99.90;;;;;;5000724;28;21050;-49
2024/02/18 05:15:10;;;;;;;2.43;1.90;;;10.80;99.90;;;;;;4991128;28;20602;-48
2024/02/18 05:17:39;;;;;;;3.10;2.30;;;10.70;99.90;;;;;;4997528;28;20473;-48
2024/02/18 05:20:09;;;;;;;4.90;2.50;;;10.80;99.90;;;;;;5004691;28;20520;-49
2024/02/18 05:22:41;;;;;;;2.53;2.33;;;10.70;99.90;;;;;;5004707;28;20464;-48
2024/02/18 05:25:10;;;;;;;5.40;2.30;;;10.70;99.90;;;;;;5004942;28;20441;-47
2024/02/18 05:27:39;;;;;;;3.47;2.50;;;10.70;99.90;;;;;;5003948;28;20571;-47
2024/02/18 05:30:08;;;;;;;3.43;2.50;;;10.70;99.90;;;;;;5011314;28;20443;-47
2024/02/18 05:32:36;;;;;;;3.80;1.97;;;10.70;99.90;;;;;;5001102;28;20499;-48
2024/02/18 05:35:06;;;;;;;3.00;2.10;;;10.70;99.90;;;;;;5004961;28;20898;-48
2024/02/18 05:37:41;;;;;;;2.53;2.17;;;10.70;99.90;;;;;;5004151;28;20467;-48
2024/02/18 05:40:10;;;;;;;2.70;1.73;;;10.70;99.90;;;;;;5003062;28;20445;-47
2024/02/18 05:42:38;;;;;;;3.13;2.30;;;10.70;99.90;;;;;;5003359;28;20506;-49
2024/02/18 05:45:09;;;;;;;6.20;2.93;;;10.70;99.90;;;;;;5004701;28;20469;-48
2024/02/18 05:47:37;;;;;;;2.10;1.90;;;10.70;99.90;;;;;;5000377;28;20478;-48
2024/02/18 05:50:08;;;;;;;4.80;2.00;;;10.70;99.90;;;;;;5003403;28;20431;-49
2024/02/18 05:52:38;;;;;;;2.93;1.87;;;10.70;99.90;;;;;;5002502;28;20476;-47
2024/02/18 05:55:08;;;;;;;6.70;2.00;;;10.70;99.90;;;;;;4992927;28;20454;-49
2024/02/18 05:57:38;;;;;;;3.43;1.80;;;10.70;99.90;;;;;;5000688;28;20500;-49
2024/02/18 06:00:07;;;;;;;3.03;2.00;;;10.70;99.90;;;;;;5005683;28;20436;-49
2024/02/18 06:02:36;;;;;;;2.90;2.30;;;10.70;99.90;;;;;;5005277;28;20479;-48
2024/02/18 06:05:06;;;;;;;2.27;1.77;;;10.70;99.90;;;;;;5007986;28;20473;-49
2024/02/18 06:07:34;;;;;;;2.17;1.93;;;10.70;99.90;;;;;;4993042;28;20479;-50
2024/02/18 06:10:02;;;;;;;3.67;2.17;;;10.70;99.90;;;;;;5005377;28;20444;-48
2024/02/18 06:12:32;;;;;;;4.50;2.23;;;10.70;99.90;;;;;;4994489;28;20463;-47
2024/02/18 06:15:00;;;;;;;3.17;2.10;;;10.70;99.90;;;;;;5008067;28;21354;-47
2024/02/18 06:17:29;;;;;;;2.07;1.80;;;10.70;99.90;;;;;;5002890;28;20472;-48
2024/02/18 06:19:57;;;;;;;1.93;1.43;;;10.70;99.90;;;;;;5006086;28;20852;-48
2024/02/18 06:22:25;;;;;;;2.27;2.03;;;10.70;99.90;;;;;;5000323;28;20470;-46
2024/02/18 06:24:53;;;;;;;3.20;1.90;;;10.70;99.90;;;;;;5009451;28;20452;-46
2024/02/18 06:27:22;;;;;;;2.37;1.90;;;10.70;99.90;;;;;;5002407;28;20572;-49
2024/02/18 06:29:51;;;;;;;3.50;2.00;;;10.70;99.90;;;;;;4994580;28;20937;-46
2024/02/18 06:32:19;;;;;;;2.70;2.00;;;10.70;99.90;;;;;;5002005;28;20479;-48
2024/02/18 06:34:50;;;;;;;2.93;2.10;;;10.70;99.90;;;;;;5004621;28;20815;-48
2024/02/18 06:37:18;;;;;;;2.83;1.87;;;10.70;99.90;;;;;;5006327;28;20550;-47
2024/02/18 06:39:46;;;;;;;2.63;2.13;;;10.70;99.90;;;;;;5007113;28;20433;-45
2024/02/18 06:42:15;;;;;;;4.30;1.80;;;10.70;99.90;;;;;;5006125;28;20474;-46
2024/02/18 06:44:43;;;;;;;6.10;3.10;;;10.70;99.90;;;;;;5005025;28;20448;-50
2024/02/18 06:47:13;;;;;;;2.60;1.37;;;10.70;99.90;;;;;;5004202;28;20467;-49
2024/02/18 06:49:41;;;;;;;3.10;1.97;;;10.70;99.90;;;;;;5004122;28;20524;-48
2024/02/18 06:52:10;;;;;;;2.30;2.10;;;10.70;99.90;;;;;;4974718;28;20516;-48
2024/02/18 06:54:38;;;;;;;2.80;2.10;;;10.70;99.90;;;;;;4994808;28;20469;-48
2024/02/18 06:57:06;;;;;;;2.47;1.80;;;10.70;99.90;;;;;;4999566;28;20463;-47
2024/02/18 06:59:34;;;;;;;3.73;2.07;;;10.70;99.90;;;;;;4987532;28;20497;-46
2024/02/18 07:02:03;;;;;;;2.40;1.57;;;10.70;99.90;;;;;;5000253;28;20465;-49
2024/02/18 07:04:33;;;;;;;2.10;1.40;;;10.60;99.90;;;;;;4999744;28;20452;-50
2024/02/18 07:07:01;;;;;;;5.03;1.90;;;10.60;99.90;;;;;;5003876;28;20464;-45
2024/02/18 07:09:29;;;;;;;2.83;2.20;;;10.70;99.90;;;;;;5005994;28;20467;-46
2024/02/18 07:11:57;;;;;;;3.10;1.90;;;10.60;99.90;;;;;;5001951;28;20519;-45
2024/02/18 07:14:26;;;;;;;2.47;1.63;;;10.60;99.90;;;;;;5002313;28;20555;-45
2024/02/18 07:16:54;;;;;;;3.13;2.13;;;10.60;99.90;;;;;;4987959;28;20462;-46
2024/02/18 07:19:22;;;;;;;3.70;2.17;;;10.60;99.90;;;;;;4995548;28;20945;-46
2024/02/18 07:21:52;;;;;;;2.40;2.17;;;10.60;99.90;;;;;;5004517;28;20469;-46
2024/02/18 07:24:20;;;;;;;4.67;2.03;;;10.60;99.90;;;;;;5005138;28;20522;-45
2024/02/18 07:26:49;;;;;;;2.00;1.80;;;10.60;99.90;;;;;;5002189;28;20508;-46
2024/02/18 07:29:17;;;;;;;2.50;1.70;;;10.60;99.90;;;;;;5006229;28;20486;-44
2024/02/18 07:31:46;;;;;;;2.60;1.53;;;10.60;99.90;;;;;;5006656;28;20489;-46
2024/02/18 07:34:14;;;;;;;2.37;1.57;;;10.60;99.90;;;;;;4998291;28;20466;-44
2024/02/18 07:36:43;;;;;;;2.80;2.57;;;10.60;99.90;;;;;;5004394;28;20470;-44
2024/02/18 07:39:13;;;;;;;2.57;2.00;;;10.60;99.90;;;;;;5006002;28;20440;-44
2024/02/18 07:41:44;;;;;;;2.43;1.97;;;10.60;99.90;;;;;;5004011;28;20544;-46
2024/02/18 07:44:12;;;;;;;2.33;1.70;;;10.60;99.90;;;;;;5006653;28;20484;-44
2024/02/18 07:46:41;;;;;;;2.73;1.83;;;10.60;99.90;;;;;;5005558;28;20474;-46
2024/02/18 07:49:10;;;;;;;2.17;1.80;;;10.60;99.90;;;;;;5004739;28;20476;-44
2024/02/18 07:51:39;;;;;;;3.77;1.80;;;10.60;99.90;;;;;;5006438;28;20542;-46
2024/02/18 07:54:07;;;;;;;2.97;1.70;;;10.60;99.90;;;;;;5005549;28;20555;-45
2024/02/18 07:56:44;;;;;;;2.80;1.70;;;10.60;99.90;;;;;;5001321;28;21054;-45
2024/02/18 07:59:13;;;;;;;4.07;1.83;;;10.60;99.90;;;;;;5013084;28;20434;-45
2024/02/18 08:01:43;;;;;;;3.23;2.60;;;10.60;99.90;;;;;;5003384;28;20458;-51
2024/02/18 08:04:12;;;;;;;3.78;2.10;;;10.60;99.90;;;;;;4999063;28;20492;-48
2024/02/18 08:06:42;;;;;;;3.67;2.50;;;10.60;99.90;;;;;;4985820;28;20560;-49
2024/02/18 08:09:17;;;;;;;4.10;1.97;;;10.60;99.90;;;;;;4990028;28;20834;-47
2024/02/18 08:11:47;;;;;;;2.50;1.70;;;10.60;99.90;;;;;;5000582;28;20999;-47
2024/02/18 08:14:16;;;;;;;3.27;2.33;;;10.60;99.90;;;;;;5001319;28;20462;-45
2024/02/18 08:16:44;;;;;;;3.63;2.00;;;10.60;99.90;;;;;;4978355;28;20622;-47
2024/02/18 08:19:12;;;;;;;6.30;2.30;;;10.60;99.90;;;;;;4997836;28;20448;-46
2024/02/18 08:21:44;;;;;;;2.77;2.00;;;10.60;99.90;;;;;;5002078;28;20499;-49
2024/02/18 08:24:13;;;;;;;2.80;1.70;;;10.60;99.90;;;;;;4989027;28;20469;-50
2024/02/18 08:26:42;;;;;;;2.67;1.90;;;10.60;99.90;;;;;;4985597;28;20591;-48
2024/02/18 08:29:11;;;;;;;8.70;2.50;;;10.60;99.90;;;;;;4997768;28;22408;-47
2024/02/18 08:31:42;;;;;;;2.67;1.83;;;10.60;99.90;;;;;;4988571;28;20482;-46
2024/02/18 08:34:11;;;;;;;4.30;2.20;;;10.60;99.90;;;;;;4999654;28;20500;-48
2024/02/18 08:36:42;;;;;;;3.53;1.83;;;10.60;99.90;;;;;;5000271;28;20524;-47
2024/02/18 08:39:10;;;;;;;2.20;1.50;;;10.60;99.90;;;;;;5004183;28;20524;-48
2024/02/18 08:41:41;;;;;;;3.23;2.10;;;10.50;99.90;;;;;;4992927;28;20478;-47
2024/02/18 08:44:14;;;;;;;3.23;1.70;;;10.60;99.90;;;;;;4985309;28;20524;-51
2024/02/18 08:46:43;;;;;;;2.40;1.90;;;10.60;99.90;;;;;;4994020;28;21018;-48
2024/02/18 08:49:12;;;;;;;3.93;1.83;;;10.50;99.90;;;;;;4995603;28;20624;-48
2024/02/18 08:51:40;;;;;;;1.90;1.50;;;10.50;99.90;;;;;;5004439;28;20467;-47
2024/02/18 08:54:09;;;;;;;3.23;1.70;;;10.50;99.90;;;;;;4991055;28;20569;-48
2024/02/18 08:56:38;;;;;;;4.07;1.73;;;10.50;99.90;;;;;;4983475;28;20474;-47
2024/02/18 08:59:06;;;;;;;2.63;1.40;;;10.50;99.90;;;;;;4986480;28;21137;-46
2024/02/18 09:01:36;;;;;;;5.03;1.40;;;10.50;99.90;;;;;;5004038;28;20524;-47
2024/02/18 09:04:05;;;;;;;3.60;1.93;;;10.50;99.90;;;;;;4998980;28;20474;-49
2024/02/18 09:06:33;;;;;;;3.73;1.57;;;10.50;99.90;;;;;;4984376;28;20997;-45
2024/02/18 09:09:05;;;;;;;3.73;2.03;;;10.50;99.90;;;;;;4992818;28;20458;-48
2024/02/18 09:11:33;;;;;;;3.40;1.60;;;10.50;99.90;;;;;;4972688;28;20543;-46
2024/02/18 09:14:01;;;;;;;1.97;1.57;;;10.50;99.90;;;;;;4987886;28;21068;-48
2024/02/18 09:16:30;;;;;;;3.23;1.60;;;10.50;99.90;;;;;;4987095;28;20516;-49
2024/02/18 09:18:59;;;;;;;2.40;2.00;;;10.50;99.90;;;;;;4985595;28;20466;-49
2024/02/18 09:21:28;;;;;;;2.17;1.70;;;10.50;99.90;;;;;;4989193;28;20840;-50
2024/02/18 09:23:57;;;;;;;2.67;1.60;;;10.50;99.90;;;;;;4999319;28;21053;-50
2024/02/18 09:26:26;;;;;;;2.50;1.73;;;10.50;99.90;;;;;;5000153;28;21009;-49
2024/02/18 09:28:55;;;;;;;2.60;1.77;;;10.50;99.90;;;;;;4992896;28;20462;-45
2024/02/18 09:31:23;;;;;;;2.77;1.40;;;10.50;99.90;;;;;;4983573;28;20495;-51
2024/02/18 09:33:52;;;;;;;2.10;1.43;;;10.50;99.90;;;;;;4995439;28;20475;-49
2024/02/18 09:36:22;;;;;;;4.53;1.90;;;10.50;99.90;;;;;;4998164;28;20448;-44
2024/02/18 09:38:53;;;;;;;4.13;2.20;;;10.50;99.90;;;;;;4995074;28;20450;-47
2024/02/18 09:41:27;;;;;;;3.00;1.70;;;10.50;99.90;;;;;;4994188;28;22736;-48
2024/02/18 09:44:03;;;;;;;3.73;2.20;;;10.50;99.90;;;;;;5000651;28;20955;-47
2024/02/18 09:46:34;;;;;;;4.00;2.10;;;10.50;99.90;;;;;;4991709;28;20460;-44
2024/02/18 09:49:05;;;;;;;3.53;1.70;;;10.50;99.90;;;;;;4994968;28;21285;-48
2024/02/18 09:51:37;;;;;;;1.83;1.47;;;10.50;99.90;;;;;;5000234;28;20537;-51
2024/02/18 09:54:09;;;;;;;2.73;1.90;;;10.50;99.90;;;;;;4969577;28;20462;-47
2024/02/18 09:56:37;;;;;;;2.30;1.67;;;10.50;99.90;;;;;;4989216;28;20532;-45
2024/02/18 09:59:08;;;;;;;3.43;1.73;;;10.50;99.90;;;;;;4986937;28;20488;-46
2024/02/18 10:01:39;;;;;;;2.47;1.67;;;10.50;99.90;;;;;;4973536;28;21910;-48
2024/02/18 10:04:07;;;;;;;1.90;1.60;;;10.50;99.90;;;;;;4981716;28;20465;-49
2024/02/18 10:06:37;;;;;;;2.60;1.70;;;10.50;99.90;;;;;;4972424;28;20511;-48
2024/02/18 10:09:08;;;;;;;1.87;1.50;;;10.50;99.90;;;;;;4983263;28;20451;-47
2024/02/18 10:11:37;;;;;;;3.80;1.73;;;10.50;99.90;;;;;;5000844;28;20456;-46
2024/02/18 10:14:06;;;;;;;2.63;1.50;;;10.50;99.90;;;;;;4999080;28;20469;-46
2024/02/18 10:16:35;;;;;;;2.20;2.00;;;10.50;99.90;;;;;;4979981;28;20819;-47
2024/02/18 10:19:04;;;;;;;3.17;1.77;;;10.50;99.90;;;;;;4988958;28;20442;-46
2024/02/18 10:21:33;;;;;;;2.17;1.53;;;10.50;99.90;;;;;;4991121;28;20455;-48
2024/02/18 10:24:09;;;;;;;6.03;2.30;;;10.40;99.90;;;;;;4987694;28;20480;-49
2024/02/18 10:26:37;;;;;;;4.60;1.70;;;10.50;99.90;;;;;;4993622;28;20862;-49
2024/02/18 10:29:06;;;;;;;3.00;1.67;;;10.40;99.90;;;;;;4972324;28;21094;-46
2024/02/18 10:31:34;;;;;;;3.30;1.70;;;10.40;99.90;;;;;;4984981;28;20488;-46
2024/02/18 10:34:03;;;;;;;2.90;1.80;;;10.40;99.90;;;;;;4981753;28;20599;-45
2024/02/18 10:36:32;;;;;;;3.60;2.27;;;10.40;99.90;;;;;;4979634;28;22605;-48
2024/02/18 10:39:03;;;;;;;3.10;1.77;;;10.40;99.90;;;;;;4985003;28;20450;-50
2024/02/18 10:41:39;;;;;;;3.80;2.07;;;10.40;99.90;;;;;;4985611;28;20474;-47
2024/02/18 10:44:11;;;;;;;2.87;1.50;;;10.40;99.90;;;;;;4982082;28;20476;-47
2024/02/18 10:46:42;;;;;;;2.37;1.70;;;10.40;99.90;;;;;;4989831;28;20530;-46
2024/02/18 10:49:17;;;;;;;3.00;1.73;;;10.40;99.90;;;;;;4997679;28;20446;-47
2024/02/18 10:51:50;;;;;;;3.67;2.00;;;10.40;99.90;;;;;;5005133;28;21056;-50
2024/02/18 10:54:28;;;;;;;2.63;1.80;;;10.40;99.90;;;;;;5007177;28;20463;-50
2024/02/18 10:57:00;;;;;;;3.00;1.57;;;10.40;99.90;;;;;;4999968;28;20978;-47
2024/02/18 10:59:36;;;;;;;2.43;1.70;;;10.40;99.90;;;;;;5002162;28;20525;-48
2024/02/18 11:02:12;;;;;;;3.30;1.70;;;10.40;99.90;;;;;;5008687;28;20472;-50
2024/02/18 11:04:41;;;;;;;1.90;1.30;;;10.40;99.90;;;;;;4985064;28;20547;-47
2024/02/18 11:07:11;;;;;;;2.23;1.60;;;10.40;99.90;;;;;;5004681;28;20652;-47
2024/02/18 11:09:45;;;;;;;2.77;1.30;;;10.40;99.90;;;;;;5006119;28;20432;-50
2024/02/18 11:12:16;;;;;;;2.43;1.77;;;10.40;99.90;;;;;;5001366;28;20937;-48
2024/02/18 11:14:45;;;;;;;4.07;1.80;;;10.40;99.90;;;;;;5005638;28;20542;-46
2024/02/18 11:17:13;;;;;;;2.60;1.90;;;10.40;99.90;;;;;;4983368;28;20453;-50
2024/02/18 11:19:42;;;;;;;3.50;1.93;;;10.40;99.90;;;;;;5000469;28;20442;-47
2024/02/18 11:22:15;;;;;;;2.60;1.60;;;10.40;99.90;;;;;;5002846;28;20938;-47
2024/02/18 11:24:45;;;;;;;2.27;1.40;;;10.40;99.90;;;;;;4999679;28;20460;-47
2024/02/18 11:27:15;;;;;;;2.43;1.80;;;10.40;99.90;;;;;;5002075;28;20743;-48
2024/02/18 11:29:47;;;;;;;3.70;2.43;;;10.40;99.90;;;;;;4987522;28;20435;-47
2024/02/18 11:32:16;;;;;;;2.73;1.97;;;10.40;99.90;;;;;;4996044;28;20516;-47
2024/02/18 11:34:44;;;;;;;1.83;1.63;;;10.40;99.90;;;;;;4999084;28;20536;-48
2024/02/18 11:37:29;;;;;;;3.17;1.70;;;10.40;99.90;;;;;;5002805;28;20467;-47
2024/02/18 11:40:06;;;;;;;2.40;1.50;;;10.40;99.90;;;;;;5004956;28;20434;-46
2024/02/18 11:42:41;;;;;;;2.00;1.77;;;10.40;99.90;;;;;;4997575;28;20549;-46
2024/02/18 11:45:11;;;;;;;2.67;1.53;;;10.40;99.90;;;;;;5004574;28;20449;-46
2024/02/18 11:47:44;;;;;;;1.83;1.50;;;10.40;99.90;;;;;;4996838;28;20785;-48
2024/02/18 11:50:13;;;;;;;2.60;1.50;;;10.40;99.90;;;;;;5003577;28;20434;-47
2024/02/18 11:52:42;;;;;;;2.30;1.70;;;10.40;99.90;;;;;;5004173;28;20467;-47
2024/02/18 11:55:16;;;;;;;4.80;2.03;;;10.40;99.90;;;;;;4993986;28;20560;-47
2024/02/18 11:57:47;;;;;;;4.23;1.53;;;10.40;99.90;;;;;;5007048;28;20499;-47
2024/02/18 12:00:18;;;;;;;3.20;1.50;;;10.40;99.90;;;;;;5004307;28;20441;-48
2024/02/18 12:02:50;;;;;;;3.47;1.90;;;10.40;99.90;;;;;;4992551;28;20480;-49
2024/02/18 12:05:20;;;;;;;2.00;1.57;;;10.40;99.90;;;;;;4999961;28;21003;-48
2024/02/18 12:07:54;;;;;;;3.30;2.07;;;10.40;99.90;;;;;;4999652;28;20478;-47
2024/02/18 12:10:23;;;;;;;2.33;1.60;;;10.40;99.90;;;;;;4984582;28;20437;-48
2024/02/18 12:12:53;;;;;;;1.90;1.37;;;10.40;99.90;;;;;;4986948;28;20485;-47
2024/02/18 12:15:26;;;;;;;3.70;1.60;;;10.40;99.90;;;;;;4992902;28;20465;-47
2024/02/18 12:18:00;;;;;;;2.27;1.47;;;10.40;99.90;;;;;;5001969;28;20478;-49
2024/02/18 12:20:33;;;;;;;2.57;1.77;;;10.40;99.90;;;;;;4998224;28;20524;-48
2024/02/18 12:23:06;;;;;;;1.83;1.37;;;10.40;99.90;;;;;;4988910;28;20996;-48
2024/02/18 12:25:37;;;;;;;3.20;1.63;;;10.40;99.90;;;;;;5003606;28;20460;-47
2024/02/18 12:28:08;;;;;;;3.33;1.63;;;10.40;99.90;;;;;;5000452;28;21060;-47
2024/02/18 12:30:37;;;;;;;1.83;1.33;;;10.40;99.90;;;;;;5004296;28;20438;-48
2024/02/18 12:33:06;;;;;;;2.53;1.57;;;10.40;99.90;;;;;;5001418;28;20473;-48
2024/02/18 12:35:35;;;;;;;2.60;1.60;;;10.40;99.90;;;;;;5002083;28;20561;-50
2024/02/18 12:38:05;;;;;;;2.60;1.53;;;10.30;99.90;;;;;;4989292;28;20485;-47
2024/02/18 12:40:34;;;;;;;1.77;1.47;;;10.30;99.90;;;;;;5005403;28;20528;-48
2024/02/18 12:43:05;;;;;;;2.40;1.60;;;10.30;99.90;;;;;;5003351;28;20850;-49
2024/02/18 12:45:56;;;;;;;2.13;1.40;;;10.40;99.90;;;;;;4992260;28;20430;-47
2024/02/18 12:48:34;;;;;;;1.97;1.40;;;10.30;99.90;;;;;;4998726;28;20474;-48
2024/02/18 12:51:11;;;;;;;5.47;2.10;;;10.30;99.90;;;;;;4978169;28;20809;-50
2024/02/18 12:53:42;;;;;;;2.87;2.00;;;10.40;99.90;;;;;;5004584;28;20446;-48
2024/02/18 12:56:11;;;;;;;3.33;1.57;;;10.30;99.90;;;;;;5002016;28;20848;-46
2024/02/18 12:58:41;;;;;;;2.03;1.37;;;10.30;99.90;;;;;;5001087;28;20457;-46
2024/02/18 13:01:11;;;;;;;2.27;1.63;;;10.30;99.90;;;;;;5003836;28;20529;-46